createdAt,value
2018-01-13T00:00:29.540Z,77.80
2018-01-13T00:02:57.916Z,77.60
2018-01-13T00:05:25.438Z,77.50
2018-01-13T00:07:53.670Z,77.90
2018-01-13T00:10:21.649Z,77.50
2018-01-13T00:12:49.095Z,77.60
2018-01-13T00:15:16.558Z,77.60
2018-01-13T00:17:44.021Z,77.70
2018-01-13T00:20:11.493Z,77.80
2018-01-13T00:22:39.344Z,77.90
2018-01-13T00:25:07.022Z,77.80
2018-01-13T00:27:35.022Z,77.70
2018-01-13T00:30:02.732Z,77.70
2018-01-13T00:32:30.173Z,77.70
2018-01-13T00:34:57.716Z,77.70
2018-01-13T00:37:25.789Z,77.70
2018-01-13T00:39:53.246Z,77.70
2018-01-13T00:42:20.801Z,77.70
2018-01-13T00:44:48.285Z,77.70
2018-01-13T00:47:15.738Z,77.70
2018-01-13T00:49:43.297Z,77.70
2018-01-13T00:52:10.784Z,77.70
2018-01-13T00:54:39.375Z,77.70
2018-01-13T00:57:07.697Z,78.00
2018-01-13T00:59:35.198Z,77.60
2018-01-13T01:02:02.861Z,77.60
2018-01-13T01:04:30.366Z,77.60
2018-01-13T01:06:58.023Z,77.60
2018-01-13T01:09:26.770Z,77.70
2018-01-13T01:11:54.750Z,77.70
2018-01-13T01:14:23.542Z,78.00
2018-01-13T01:16:51.892Z,78.00
2018-01-13T01:19:19.799Z,77.70
2018-01-13T01:21:48.036Z,78.20
2018-01-13T01:24:15.568Z,77.80
2018-01-13T01:26:43.073Z,78.20
2018-01-13T01:29:12.685Z,78.10
2018-01-13T01:31:41.589Z,78.00
2018-01-13T01:34:09.844Z,77.90
2018-01-13T01:36:37.733Z,77.50
2018-01-13T01:39:05.252Z,77.50
2018-01-13T01:41:32.726Z,77.30
2018-01-13T01:44:00.979Z,77.50
2018-01-13T01:46:28.448Z,77.10
2018-01-13T01:48:56.769Z,77.20
2018-01-13T01:51:24.335Z,77.30
2018-01-13T01:53:51.844Z,77.30
2018-01-13T01:56:19.444Z,77.30
2018-01-13T01:58:46.883Z,77.40
2018-01-13T02:01:14.364Z,77.30
2018-01-13T02:03:41.819Z,77.40
2018-01-13T02:06:09.340Z,77.40
2018-01-13T02:08:37.854Z,77.90
2018-01-13T02:11:05.653Z,77.40
2018-01-13T02:13:33.278Z,77.50
2018-01-13T02:16:00.729Z,77.50
2018-01-13T02:18:28.292Z,77.50
2018-01-13T02:20:55.877Z,77.50
2018-01-13T02:23:23.344Z,77.40
2018-01-13T02:25:51.313Z,77.30
2018-01-13T02:28:19.174Z,77.40
2018-01-13T02:30:46.662Z,77.30
2018-01-13T02:33:14.876Z,77.90
2018-01-13T02:35:42.368Z,77.20
2018-01-13T02:38:09.841Z,77.20
2018-01-13T02:40:37.503Z,77.20
2018-01-13T02:43:04.951Z,77.10
2018-01-13T02:45:32.465Z,77.20
2018-01-13T02:47:59.993Z,77.10
2018-01-13T02:50:28.638Z,77.70
2018-01-13T02:52:56.093Z,77.30
2018-01-13T02:55:23.578Z,77.40
2018-01-13T02:57:51.110Z,77.50
2018-01-13T03:00:18.883Z,77.60
2018-01-13T03:02:46.635Z,77.70
2018-01-13T03:05:14.124Z,77.60
2018-01-13T03:07:41.564Z,77.70
2018-01-13T03:10:09.485Z,77.20
2018-01-13T03:12:36.940Z,77.80
2018-01-13T03:15:04.416Z,77.80
2018-01-13T03:17:31.865Z,77.80
2018-01-13T03:19:59.514Z,77.80
2018-01-13T03:22:27.376Z,77.90
2018-01-13T03:24:54.851Z,77.90
2018-01-13T03:27:22.838Z,77.90
2018-01-13T03:29:50.311Z,78.00
2018-01-13T03:32:17.756Z,78.00
2018-01-13T03:34:45.226Z,78.00
2018-01-13T03:37:12.687Z,78.00
2018-01-13T03:39:40.238Z,78.20
2018-01-13T03:42:07.683Z,77.90
2018-01-13T03:44:35.414Z,78.00
2018-01-13T03:47:03.311Z,77.90
2018-01-13T03:49:30.776Z,77.60
2018-01-13T03:51:58.225Z,77.60
2018-01-13T03:54:25.784Z,77.40
2018-01-13T03:56:53.655Z,77.30
2018-01-13T03:59:21.096Z,77.20
2018-01-13T04:01:48.589Z,77.20
2018-01-13T04:04:16.101Z,77.10
2018-01-13T04:06:43.543Z,77.00
2018-01-13T04:09:11.000Z,77.10
2018-01-13T04:11:38.970Z,77.20
2018-01-13T04:14:06.401Z,77.20
2018-01-13T04:16:34.103Z,77.20
2018-01-13T04:19:01.567Z,77.10
2018-01-13T04:21:29.012Z,77.10
2018-01-13T04:23:56.487Z,77.80
2018-01-13T04:26:23.967Z,77.20
2018-01-13T04:28:51.927Z,77.10
2018-01-13T04:31:19.391Z,77.50
2018-01-13T04:33:47.660Z,78.10
2018-01-13T04:36:15.522Z,77.20
2018-01-13T04:38:42.988Z,77.30
2018-01-13T04:41:10.492Z,77.40
2018-01-13T04:43:38.401Z,77.50
2018-01-13T04:46:05.847Z,77.50
2018-01-13T04:48:33.810Z,77.50
2018-01-13T04:51:01.329Z,77.60
2018-01-13T04:53:29.045Z,77.60
2018-01-13T04:55:56.487Z,77.70
2018-01-13T04:58:23.936Z,77.80
2018-01-13T05:00:51.507Z,77.80
2018-01-13T05:03:19.137Z,77.90
2018-01-13T05:05:46.601Z,78.00
2018-01-13T05:08:14.153Z,77.90
2018-01-13T05:10:41.952Z,78.00
2018-01-13T05:13:09.546Z,78.00
2018-01-13T05:15:37.884Z,78.50
2018-01-13T05:18:05.329Z,78.00
2018-01-13T05:20:32.915Z,78.10
2018-01-13T05:23:01.587Z,78.60
2018-01-13T05:25:29.110Z,78.10
2018-01-13T05:27:56.939Z,78.00
2018-01-13T05:30:25.151Z,78.40
2018-01-13T05:32:52.709Z,77.90
2018-01-13T05:35:20.155Z,78.00
2018-01-13T05:37:47.632Z,77.90
2018-01-13T05:40:15.063Z,78.00
2018-01-13T05:42:43.077Z,78.10
2018-01-13T05:45:10.544Z,78.10
2018-01-13T05:47:38.006Z,78.00
2018-01-13T05:50:05.464Z,78.00
2018-01-13T05:52:32.931Z,78.00
2018-01-13T05:55:00.468Z,78.00
2018-01-13T05:57:27.911Z,78.00
2018-01-13T05:59:55.444Z,78.00
2018-01-13T06:02:23.080Z,78.00
2018-01-13T06:04:51.003Z,78.00
2018-01-13T06:07:18.583Z,77.90
2018-01-13T06:09:46.040Z,77.80
2018-01-13T06:12:13.901Z,77.80
2018-01-13T06:14:41.352Z,77.80
2018-01-13T06:17:08.887Z,77.80
2018-01-13T06:19:36.362Z,77.80
2018-01-13T06:22:04.805Z,78.70
2018-01-13T06:24:32.232Z,77.70
2018-01-13T06:27:00.976Z,78.00
2018-01-13T06:29:28.853Z,77.70
2018-01-13T06:31:56.407Z,77.60
2018-01-13T06:34:24.377Z,77.80
2018-01-13T06:36:52.450Z,77.70
2018-01-13T06:39:19.893Z,77.70
2018-01-13T06:41:47.357Z,77.70
2018-01-13T06:44:14.825Z,77.80
2018-01-13T06:46:42.339Z,77.80
2018-01-13T06:49:09.772Z,77.80
2018-01-13T06:51:37.232Z,77.80
2018-01-13T06:54:04.844Z,77.80
2018-01-13T06:56:32.291Z,77.80
2018-01-13T06:59:00.097Z,77.60
2018-01-13T07:01:28.308Z,78.00
2018-01-13T07:03:55.913Z,77.50
2018-01-13T07:06:23.361Z,77.50
2018-01-13T07:08:51.605Z,77.90
2018-01-13T07:11:19.404Z,77.50
2018-01-13T07:13:46.854Z,77.40
2018-01-13T07:16:14.421Z,77.40
2018-01-13T07:18:41.868Z,77.40
2018-01-13T07:21:09.470Z,77.30
2018-01-13T07:23:37.905Z,77.70
2018-01-13T07:26:05.775Z,77.30
2018-01-13T07:28:33.756Z,77.40
2018-01-13T07:31:01.263Z,77.40
2018-01-13T07:33:28.712Z,77.50
2018-01-13T07:35:56.321Z,77.50
2018-01-13T07:38:23.767Z,77.40
2018-01-13T07:40:51.266Z,77.30
2018-01-13T07:43:19.677Z,77.60
2018-01-13T07:45:47.132Z,77.20
2018-01-13T07:48:14.693Z,77.10
2018-01-13T07:50:42.141Z,77.10
2018-01-13T07:53:10.077Z,77.10
2018-01-13T07:55:37.494Z,77.10
2018-01-13T07:58:05.025Z,77.20
2018-01-13T08:00:32.482Z,77.30
2018-01-13T08:03:00.101Z,77.20
2018-01-13T08:05:27.601Z,77.30
2018-01-13T08:07:55.081Z,77.10
2018-01-13T08:10:23.064Z,77.00
2018-01-13T08:12:50.512Z,77.00
2018-01-13T08:15:18.244Z,77.00
2018-01-13T08:17:45.676Z,77.00
2018-01-13T08:20:14.244Z,77.20
2018-01-13T08:22:41.715Z,76.80
2018-01-13T08:25:09.637Z,76.80
2018-01-13T08:27:37.642Z,76.90
2018-01-13T08:30:05.860Z,77.20
2018-01-13T08:32:33.340Z,76.80
2018-01-13T08:35:00.795Z,76.60
2018-01-13T08:37:28.255Z,76.30
2018-01-13T08:39:56.104Z,76.20
2018-01-13T08:42:23.545Z,76.20
2018-01-13T08:44:51.102Z,76.10
2018-01-13T08:47:18.942Z,76.10
2018-01-13T08:49:47.139Z,76.10
2018-01-13T08:52:14.600Z,76.00
2018-01-13T08:54:42.071Z,75.80
2018-01-13T08:57:09.818Z,75.90
2018-01-13T08:59:37.279Z,75.90
2018-01-13T09:02:20.553Z,75.90
2018-01-13T09:04:48.210Z,75.90
2018-01-13T09:07:16.984Z,75.90
2018-01-13T09:09:44.618Z,75.70
2018-01-13T09:12:13.021Z,76.30
2018-01-13T09:14:40.474Z,75.60
2018-01-13T09:17:07.963Z,75.70
2018-01-13T09:19:36.266Z,76.00
2018-01-13T09:22:03.839Z,75.60
2018-01-13T09:24:31.313Z,75.60
2018-01-13T09:26:59.251Z,75.60
2018-01-13T09:29:27.793Z,75.40
2018-01-13T09:31:55.276Z,75.20
2018-01-13T09:34:23.521Z,76.30
2018-01-13T09:36:50.968Z,75.20
2018-01-13T09:39:18.460Z,75.30
2018-01-13T09:41:47.072Z,75.60
2018-01-13T09:44:14.538Z,75.20
2018-01-13T09:46:41.987Z,75.30
2018-01-13T09:49:09.477Z,75.50
2018-01-13T09:51:36.961Z,75.40
2018-01-13T09:54:05.245Z,75.50
2018-01-13T09:56:33.778Z,75.30
2018-01-13T09:59:01.234Z,75.00
2018-01-13T10:01:29.746Z,74.70
2018-01-13T10:03:57.178Z,74.70
2018-01-13T10:06:24.828Z,74.70
2018-01-13T10:08:53.702Z,74.50
2018-01-13T10:11:21.723Z,74.50
2018-01-13T10:13:49.153Z,74.50
2018-01-13T10:16:16.621Z,74.20
2018-01-13T10:18:44.104Z,74.00
2018-01-13T10:21:11.601Z,74.00
2018-01-13T10:23:39.049Z,74.00
2018-01-13T10:26:06.525Z,74.00
2018-01-13T10:28:34.237Z,74.30
2018-01-13T10:31:02.553Z,74.40
2018-01-13T10:33:30.031Z,73.90
2018-01-13T10:35:57.817Z,73.80
2018-01-13T10:38:25.797Z,73.80
2018-01-13T10:40:53.260Z,73.80
2018-01-13T10:43:21.573Z,74.00
2018-01-13T10:45:49.030Z,73.50
2018-01-13T10:48:16.504Z,73.50
2018-01-13T10:50:44.254Z,73.20
2018-01-13T10:53:12.133Z,73.20
2018-01-13T10:55:39.610Z,73.10
2018-01-13T10:58:07.133Z,72.90
2018-01-13T11:00:34.596Z,73.20
2018-01-13T11:03:02.207Z,73.40
2018-01-13T11:05:29.646Z,73.70
2018-01-13T11:07:57.143Z,72.60
2018-01-13T11:10:24.605Z,72.20
2018-01-13T11:12:52.539Z,72.00
2018-01-13T11:15:20.788Z,72.60
2018-01-13T11:17:48.216Z,72.20
2018-01-13T11:20:15.812Z,72.00
2018-01-13T11:22:43.277Z,72.10
2018-01-13T11:25:10.995Z,71.50
2018-01-13T11:27:38.897Z,71.30
2018-01-13T11:30:07.019Z,71.10
2018-01-13T11:32:34.493Z,71.40
2018-01-13T11:35:02.713Z,71.80
2018-01-13T11:37:30.217Z,71.30
2018-01-13T11:39:57.689Z,71.20
2018-01-13T11:42:25.508Z,71.00
2018-01-13T11:44:53.825Z,70.60
2018-01-13T11:47:21.296Z,70.20
2018-01-13T11:49:49.282Z,70.40
2018-01-13T11:52:16.803Z,70.10
2018-01-13T11:54:44.302Z,70.50
2018-01-13T11:57:11.919Z,70.60
2018-01-13T11:59:39.449Z,70.70
2018-01-13T12:02:08.194Z,71.10
2018-01-13T12:04:35.641Z,70.70
2018-01-13T12:07:03.088Z,71.00
2018-01-13T12:09:30.873Z,70.90
2018-01-13T12:11:58.913Z,71.10
2018-01-13T12:14:26.370Z,71.10
2018-01-13T12:16:53.823Z,71.20
2018-01-13T12:19:21.484Z,71.20
2018-01-13T12:21:48.941Z,71.20
2018-01-13T12:24:17.584Z,71.10
2018-01-13T12:26:46.036Z,71.40
2018-01-13T12:29:13.842Z,71.00
2018-01-13T12:31:42.078Z,71.60
2018-01-13T12:34:09.545Z,71.10
2018-01-13T12:36:37.052Z,70.60
2018-01-13T12:39:04.569Z,70.50
2018-01-13T12:41:32.074Z,70.80
2018-01-13T12:43:59.943Z,70.70
2018-01-13T12:46:27.507Z,70.90
2018-01-13T12:48:55.059Z,70.60
2018-01-13T12:51:22.617Z,70.10
2018-01-13T12:53:50.157Z,70.40
2018-01-13T12:56:17.734Z,70.40
2018-01-13T12:58:45.173Z,70.50
2018-01-13T13:01:12.925Z,70.00
2018-01-13T13:03:41.137Z,70.60
2018-01-13T13:06:08.602Z,70.00
2018-01-13T13:08:36.170Z,69.90
2018-01-13T13:11:04.252Z,69.00
2018-01-13T13:13:31.697Z,69.10
2018-01-13T13:15:59.780Z,69.20
2018-01-13T13:18:27.569Z,69.20
2018-01-13T13:20:55.800Z,69.80
2018-01-13T13:23:23.567Z,69.30
2018-01-13T13:25:51.102Z,69.30
2018-01-13T13:28:18.969Z,69.70
2018-01-13T13:30:46.532Z,69.50
2018-01-13T13:33:14.099Z,69.10
2018-01-13T13:35:41.799Z,69.80
2018-01-13T13:38:10.813Z,69.30
2018-01-13T13:40:39.139Z,69.00
2018-01-13T13:43:06.678Z,68.50
2018-01-13T13:45:34.176Z,68.60
2018-01-13T13:48:02.091Z,68.40
2018-01-13T13:50:29.678Z,68.40
2018-01-13T13:52:57.129Z,68.00
2018-01-13T13:55:24.604Z,68.50
2018-01-13T13:57:52.064Z,68.10
2018-01-13T14:00:19.736Z,67.50
2018-01-13T14:02:47.188Z,67.90
2018-01-13T14:05:14.642Z,67.70
2018-01-13T14:07:42.310Z,67.70
2018-01-13T14:10:09.797Z,67.90
2018-01-13T14:12:38.333Z,68.10
2018-01-13T14:15:06.338Z,67.70
2018-01-13T14:17:34.585Z,68.30
2018-01-13T14:20:02.024Z,67.80
2018-01-13T14:22:31.236Z,67.90
2018-01-13T14:24:58.709Z,67.40
2018-01-13T14:27:26.554Z,67.10
2018-01-13T14:29:54.031Z,66.40
2018-01-13T14:32:21.542Z,66.30
2018-01-13T14:34:48.990Z,66.70
2018-01-13T14:37:16.440Z,66.60
2018-01-13T14:39:44.020Z,66.30
2018-01-13T14:42:11.489Z,65.90
2018-01-13T14:44:39.232Z,66.30
2018-01-13T14:47:06.684Z,65.90
2018-01-13T14:49:34.156Z,66.00
2018-01-13T14:52:02.046Z,65.90
2018-01-13T14:54:30.448Z,65.70
2018-01-13T14:56:58.759Z,65.70
2018-01-13T14:59:26.345Z,65.10
2018-01-13T15:01:53.787Z,64.90
2018-01-13T15:04:21.424Z,64.90
2018-01-13T15:06:49.437Z,65.00
2018-01-13T15:09:17.430Z,64.60
2018-01-13T15:11:45.349Z,64.50
2018-01-13T15:14:12.901Z,64.30
2018-01-13T15:16:40.496Z,64.50
2018-01-13T15:19:07.970Z,64.40
2018-01-13T15:21:35.893Z,64.70
2018-01-13T15:24:03.346Z,63.90
2018-01-13T15:26:30.821Z,63.70
2018-01-13T15:28:58.717Z,63.70
2018-01-13T15:31:26.469Z,63.90
2018-01-13T15:33:53.913Z,63.50
2018-01-13T15:36:21.394Z,62.80
2018-01-13T15:38:48.830Z,63.00
2018-01-13T15:41:16.309Z,62.80
2018-01-13T15:43:43.919Z,62.70
2018-01-13T15:46:11.608Z,62.60
2018-01-13T15:48:39.065Z,62.50
2018-01-13T15:51:06.545Z,61.80
2018-01-13T15:53:34.038Z,61.40
2018-01-13T15:56:01.492Z,62.20
2018-01-13T15:58:28.999Z,61.80
2018-01-13T16:00:56.865Z,61.60
2018-01-13T16:03:24.345Z,61.40
2018-01-13T16:05:52.629Z,62.40
2018-01-13T16:08:21.379Z,62.70
2018-01-13T16:10:48.915Z,61.60
2018-01-13T16:13:17.444Z,61.90
2018-01-13T16:15:44.913Z,61.40
2018-01-13T16:18:13.221Z,62.00
2018-01-13T16:20:40.949Z,61.60
2018-01-13T16:23:09.245Z,62.00
2018-01-13T16:25:36.822Z,61.50
2018-01-13T16:28:04.639Z,61.50
2018-01-13T16:30:32.111Z,62.00
2018-01-13T16:33:00.340Z,62.90
2018-01-13T16:35:28.089Z,62.50
2018-01-13T16:37:56.088Z,62.10
2018-01-13T16:40:23.597Z,62.30
2018-01-13T16:42:51.023Z,62.50
2018-01-13T16:45:18.517Z,62.50
2018-01-13T16:47:46.106Z,62.50
2018-01-13T16:50:33.044Z,62.50
2018-01-13T16:53:06.555Z,62.80
2018-01-13T16:55:35.236Z,62.90
2018-01-13T16:58:02.965Z,63.00
2018-01-13T17:00:30.966Z,62.60
2018-01-13T17:02:58.438Z,62.40
2018-01-13T17:05:26.643Z,62.90
2018-01-13T17:07:54.129Z,62.50
2018-01-13T17:10:21.602Z,62.40
2018-01-13T17:12:49.571Z,62.30
2018-01-13T17:15:19.725Z,62.30
2018-01-13T17:17:48.427Z,63.50
2018-01-13T17:20:16.717Z,62.40
2018-01-13T17:22:44.143Z,62.60
2018-01-13T17:25:12.790Z,62.70
2018-01-13T17:27:40.649Z,62.50
2018-01-13T17:30:08.169Z,63.20
2018-01-13T17:32:35.647Z,62.80
2018-01-13T17:35:03.289Z,63.00
2018-01-13T17:37:30.780Z,62.50
2018-01-13T17:39:58.248Z,62.00
2018-01-13T17:42:25.692Z,62.40
2018-01-13T17:44:53.236Z,62.60
2018-01-13T17:47:20.698Z,62.50
2018-01-13T17:49:49.024Z,62.50
2018-01-13T17:52:17.246Z,62.40
2018-01-13T17:54:44.729Z,62.10
2018-01-13T17:57:12.192Z,62.30
2018-01-13T17:59:40.975Z,63.10
2018-01-13T18:02:08.562Z,62.10
2018-01-13T18:04:36.028Z,62.30
2018-01-13T18:07:03.545Z,62.20
2018-01-13T18:09:30.989Z,62.20
2018-01-13T18:11:59.021Z,62.00
2018-01-13T18:14:26.711Z,61.80
2018-01-13T18:16:54.191Z,61.80
2018-01-13T18:19:21.660Z,61.90
2018-01-13T18:21:49.868Z,62.10
2018-01-13T18:24:17.423Z,61.60
2018-01-13T18:26:44.864Z,61.10
2018-01-13T18:29:12.721Z,61.00
2018-01-13T18:31:41.282Z,61.90
2018-01-13T18:34:08.756Z,61.50
2018-01-13T18:36:37.010Z,61.90
2018-01-13T18:39:04.868Z,61.40
2018-01-13T18:41:32.321Z,61.20
2018-01-13T18:44:00.424Z,61.20
2018-01-13T18:46:28.735Z,61.60
2018-01-13T18:48:56.298Z,61.20
2018-01-13T18:51:23.773Z,61.20
2018-01-13T18:53:51.308Z,61.10
2018-01-13T18:56:19.008Z,61.00
2018-01-13T18:58:46.574Z,60.50
2018-01-13T19:01:14.088Z,60.50
2018-01-13T19:03:41.908Z,60.50
2018-01-13T19:06:09.366Z,60.90
2018-01-13T19:08:37.622Z,61.10
2018-01-13T19:11:05.086Z,60.70
2018-01-13T19:13:33.880Z,61.00
2018-01-13T19:16:01.539Z,60.70
2018-01-13T19:18:28.991Z,60.70
2018-01-13T19:20:56.492Z,60.40
2018-01-13T19:23:23.973Z,60.40
2018-01-13T19:25:51.528Z,60.20
2018-01-13T19:28:19.567Z,60.40
2018-01-13T19:30:47.800Z,60.80
2018-01-13T19:33:15.260Z,60.40
2018-01-13T19:35:42.734Z,60.60
2018-01-13T19:38:10.643Z,60.50
2018-01-13T19:40:38.143Z,61.10
2018-01-13T19:43:06.216Z,60.10
2018-01-13T19:45:33.685Z,60.20
2018-01-13T19:48:01.157Z,60.30
2018-01-13T19:50:29.404Z,60.20
2018-01-13T19:52:56.893Z,59.80
2018-01-13T19:55:25.141Z,60.60
2018-01-13T19:57:52.703Z,60.30
2018-01-13T20:00:20.185Z,60.10
2018-01-13T20:02:48.623Z,60.00
2018-01-13T20:05:16.105Z,59.60
2018-01-13T20:07:43.561Z,59.70
2018-01-13T20:10:11.311Z,59.60
2018-01-13T20:12:39.265Z,59.40
2018-01-13T20:15:07.243Z,59.20
2018-01-13T20:17:34.764Z,59.20
2018-01-13T20:20:02.233Z,59.50
2018-01-13T20:22:29.746Z,59.00
2018-01-13T20:24:58.079Z,59.30
2018-01-13T20:27:25.891Z,58.90
2018-01-13T20:29:54.135Z,59.40
2018-01-13T20:32:22.122Z,59.10
2018-01-13T20:34:49.655Z,59.40
2018-01-13T20:37:18.710Z,59.80
2018-01-13T20:39:46.196Z,58.90
2018-01-13T20:42:13.726Z,59.00
2018-01-13T20:44:41.227Z,59.20
2018-01-13T20:47:08.745Z,59.50
2018-01-13T20:49:36.792Z,59.40
2018-01-13T20:52:04.782Z,59.30
2018-01-13T20:54:32.294Z,59.10
2018-01-13T20:57:00.740Z,59.40
2018-01-13T20:59:28.225Z,59.40
2018-01-13T21:01:55.803Z,59.20
2018-01-13T21:04:24.081Z,59.60
2018-01-13T21:06:52.413Z,59.60
2018-01-13T21:09:19.899Z,59.20
2018-01-13T21:11:48.227Z,59.50
2018-01-13T21:14:16.271Z,59.20
2018-01-13T21:16:44.559Z,59.60
2018-01-13T21:19:12.126Z,59.20
2018-01-13T21:21:39.728Z,59.20
2018-01-13T21:24:07.201Z,59.10
2018-01-13T21:26:35.939Z,60.20
2018-01-13T21:29:04.014Z,59.20
2018-01-13T21:31:31.945Z,59.20
2018-01-13T21:34:00.186Z,59.20
2018-01-13T21:36:27.682Z,58.90
2018-01-13T21:38:55.249Z,58.60
2018-01-13T21:41:23.004Z,58.80
2018-01-13T21:43:51.402Z,58.80
2018-01-13T21:46:18.880Z,58.50
2018-01-13T21:48:46.367Z,58.70
2018-01-13T21:51:14.071Z,58.80
2018-01-13T21:53:41.526Z,58.60
2018-01-13T21:56:09.213Z,59.00
2018-01-13T21:58:36.675Z,59.00
2018-01-13T22:01:04.261Z,59.30
2018-01-13T22:03:31.713Z,59.10
2018-01-13T22:05:59.188Z,59.10
2018-01-13T22:08:26.690Z,59.10
2018-01-13T22:10:54.178Z,59.80
2018-01-13T22:13:22.138Z,58.60
2018-01-13T22:15:49.634Z,58.80
2018-01-13T22:18:17.866Z,59.70
2018-01-13T22:20:46.076Z,59.30
2018-01-13T22:23:13.581Z,60.00
2018-01-13T22:25:41.438Z,59.60
2018-01-13T22:28:09.889Z,59.40
2018-01-13T22:30:38.184Z,59.90
2018-01-13T22:33:06.328Z,59.60
2018-01-13T22:35:35.117Z,60.10
2018-01-13T22:38:03.741Z,59.50
2018-01-13T22:40:31.362Z,59.50
2018-01-13T22:42:58.811Z,59.90
2018-01-13T22:45:27.072Z,60.50
2018-01-13T22:47:54.540Z,60.10
2018-01-13T22:50:22.758Z,60.00
2018-01-13T22:52:50.194Z,60.00
2018-01-13T22:55:17.856Z,59.90
2018-01-13T22:57:46.175Z,60.20
2018-01-13T23:00:13.707Z,59.80
2018-01-13T23:02:41.172Z,60.00
2018-01-13T23:05:08.687Z,60.00
2018-01-13T23:07:36.133Z,59.90
2018-01-13T23:10:03.597Z,60.10
2018-01-13T23:12:31.227Z,60.10
2018-01-13T23:14:59.401Z,60.10
2018-01-13T23:17:26.946Z,60.10
2018-01-13T23:19:54.399Z,60.00
2018-01-13T23:22:22.057Z,60.20
2018-01-13T23:24:49.603Z,59.90
2018-01-13T23:27:22.384Z,60.00
2018-01-13T23:29:49.860Z,60.00
2018-01-13T23:32:17.297Z,60.00
2018-01-13T23:34:44.773Z,59.90
2018-01-13T23:37:12.224Z,60.00
2018-01-13T23:39:39.976Z,60.00
2018-01-13T23:42:07.430Z,60.20
2018-01-13T23:44:35.029Z,60.30
2018-01-13T23:47:02.508Z,60.10
2018-01-13T23:49:29.993Z,60.10
2018-01-13T23:51:58.520Z,60.00
2018-01-13T23:54:26.090Z,60.20
2018-01-13T23:56:53.563Z,60.00
2018-01-13T23:59:21.771Z,60.90
